Time;durP1;ratioP1;P1;durP2;ratioP2;P2;SDS_P1;SDS_P2;PMS_P1;PMS_P2;Temp;Humidity;BMP_temperature;BMP_pressure;BME280_temperature;BME280_humidity;BME280_pressure;Samples;Min_cycle;Max_cycle;Signal;HPM_P1;HPM_P2
2023/03/05 00:01:15;;;;;;;;;;;3.70;99.90;;;;;;5030243;28;19921;-55
2023/03/05 00:03:41;;;;;;;;;;;3.70;99.90;;;;;;5030877;28;19921;-56
2023/03/05 00:06:07;;;;;;;;;;;3.70;99.90;;;;;;5030135;28;19928;-55
2023/03/05 00:08:32;;;;;;;;;;;3.60;99.90;;;;;;5029828;28;19917;-55
2023/03/05 00:10:58;;;;;;;;;;;3.60;99.90;;;;;;5029377;28;19917;-56
2023/03/05 00:13:24;;;;;;;;;;;3.70;99.90;;;;;;5029925;28;19917;-57
2023/03/05 00:15:50;;;;;;;;;;;3.60;99.90;;;;;;5028585;28;19917;-52
2023/03/05 00:18:15;;;;;;;;;;;3.70;99.90;;;;;;5029858;28;20369;-53
2023/03/05 00:20:41;;;;;;;;;;;3.60;99.90;;;;;;5030086;28;19921;-55
2023/03/05 00:23:06;;;;;;;;;;;3.60;99.90;;;;;;5030280;28;20378;-56
2023/03/05 00:25:34;;;;;;;;;;;3.70;99.90;;;;;;5029467;28;20469;-57
2023/03/05 00:27:59;;;;;;;;;;;3.70;99.90;;;;;;5023574;28;19917;-53
2023/03/05 00:30:25;;;;;;;;;;;3.70;99.90;;;;;;5031467;28;19924;-55
2023/03/05 00:32:50;;;;;;;;;;;3.70;99.90;;;;;;5029680;28;20479;-53
2023/03/05 00:35:16;;;;;;;;;;;3.70;99.90;;;;;;5030725;28;20378;-55
2023/03/05 00:37:41;;;;;;;;;;;3.70;99.90;;;;;;5027737;28;19925;-54
2023/03/05 00:40:07;;;;;;;;;;;3.70;99.90;;;;;;5029835;28;19916;-55
2023/03/05 00:42:37;;;;;;;;;;;3.70;99.90;;;;;;5029317;28;19917;-55
2023/03/05 00:45:06;;;;;;;;;;;3.70;99.90;;;;;;5029951;28;20354;-56
2023/03/05 00:47:32;;;;;;;;;;;3.70;99.90;;;;;;5028077;28;19921;-56
2023/03/05 00:49:57;;;;;;;;;;;3.70;99.90;;;;;;5029619;28;19924;-55
2023/03/05 00:52:23;;;;;;;;;;;3.70;99.90;;;;;;5029834;28;20389;-54
2023/03/05 00:54:48;;;;;;;;;;;3.70;99.90;;;;;;5030277;28;19963;-54
2023/03/05 00:57:14;;;;;;;;;;;3.70;99.90;;;;;;5028699;28;19976;-55
2023/03/05 00:59:39;;;;;;;;;;;3.70;99.90;;;;;;5028840;28;19917;-56
2023/03/05 01:02:05;;;;;;;;;;;3.70;99.90;;;;;;5030220;28;19921;-53
2023/03/05 01:04:30;;;;;;;;;;;3.70;99.90;;;;;;5028148;28;19929;-55
2023/03/05 01:06:56;;;;;;;;;;;3.70;99.90;;;;;;5029301;28;20198;-53
2023/03/05 01:09:24;;;;;;;;;;;3.80;99.90;;;;;;5028744;28;19917;-53
2023/03/05 01:11:50;;;;;;;;;;;3.80;99.90;;;;;;5029861;28;20363;-54
2023/03/05 01:14:15;;;;;;;;;;;3.80;99.90;;;;;;5029381;28;20337;-54
2023/03/05 01:16:41;;;;;;;;;;;3.80;99.90;;;;;;5029643;28;19967;-56
2023/03/05 01:19:06;;;;;;;;;;;3.80;99.90;;;;;;5028577;28;19924;-55
2023/03/05 01:21:33;;;;;;;;;;;3.90;99.90;;;;;;5029685;28;19972;-56
2023/03/05 01:23:59;;;;;;;;;;;3.90;99.90;;;;;;5029373;28;20294;-55
2023/03/05 01:26:24;;;;;;;;;;;3.90;99.90;;;;;;5028169;28;19917;-55
2023/03/05 01:28:50;;;;;;;;;;;3.90;99.90;;;;;;5028503;28;19917;-54
2023/03/05 01:31:15;;;;;;;;;;;3.80;99.90;;;;;;5029558;28;19928;-55
2023/03/05 01:33:41;;;;;;;;;;;3.80;99.90;;;;;;5028276;28;19924;-56
2023/03/05 01:36:08;;;;;;;;;;;3.70;99.90;;;;;;5029066;28;19917;-57
2023/03/05 01:38:34;;;;;;;;;;;3.70;99.90;;;;;;5028159;28;20405;-52
2023/03/05 01:40:59;;;;;;;;;;;3.70;99.90;;;;;;5029113;28;20208;-54
2023/03/05 01:43:26;;;;;;;;;;;3.60;99.90;;;;;;5029543;28;19917;-55
2023/03/05 01:46:10;;;;;;;;;;;3.60;99.90;;;;;;5029261;28;19921;-54
2023/03/05 01:48:36;;;;;;;;;;;3.60;99.90;;;;;;5028382;28;20298;-54
2023/03/05 01:51:02;;;;;;;;;;;3.60;99.90;;;;;;5029857;28;19924;-53
2023/03/05 01:53:27;;;;;;;;;;;3.60;99.90;;;;;;5032913;28;19928;-55
2023/03/05 01:55:53;;;;;;;;;;;3.60;99.90;;;;;;5033203;28;20401;-57
2023/03/05 01:58:19;;;;;;;;;;;3.60;99.90;;;;;;5031937;28;19924;-52
2023/03/05 02:00:45;;;;;;;;;;;3.60;99.90;;;;;;5033570;28;20004;-55
2023/03/05 02:03:12;;;;;;;;;;;3.60;99.90;;;;;;5032330;28;20385;-55
2023/03/05 02:05:39;;;;;;;;;;;3.50;99.90;;;;;;5032638;28;19925;-54
2023/03/05 02:08:06;;;;;;;;;;;3.50;99.90;;;;;;5031157;28;20386;-52
2023/03/05 02:10:40;;;;;;;;;;;3.50;99.90;;;;;;5032871;28;19923;-55
2023/03/05 02:13:07;;;;;;;;;;;3.50;99.90;;;;;;5031369;28;19943;-54
2023/03/05 02:15:33;;;;;;;;;;;3.40;99.90;;;;;;5031876;28;20004;-56
2023/03/05 02:18:00;;;;;;;;;;;3.30;99.90;;;;;;5030443;28;19999;-56
2023/03/05 02:20:27;;;;;;;;;;;3.20;99.90;;;;;;5032199;28;20023;-53
2023/03/05 02:22:53;;;;;;;;;;;3.20;99.90;;;;;;5015172;28;20382;-55
2023/03/05 02:25:20;;;;;;;;;;;3.10;99.90;;;;;;5032584;28;19921;-55
2023/03/05 02:27:50;;;;;;;;;;;3.10;99.90;;;;;;5030838;28;19927;-54
2023/03/05 02:30:16;;;;;;;;;;;3.00;99.90;;;;;;5032160;28;20345;-55
2023/03/05 02:32:41;;;;;;;;;;;3.00;99.90;;;;;;5032891;28;19925;-54
2023/03/05 02:35:07;;;;;;;;;;;3.00;99.90;;;;;;5032290;28;20000;-53
2023/03/05 02:37:33;;;;;;;;;;;3.00;99.90;;;;;;5030620;28;19931;-55
2023/03/05 02:39:58;;;;;;;;;;;2.90;99.90;;;;;;5032073;28;20000;-57
2023/03/05 02:42:24;;;;;;;;;;;2.90;99.90;;;;;;5032188;28;19925;-54
2023/03/05 02:44:49;;;;;;;;;;;2.90;99.90;;;;;;5031792;28;19925;-56
2023/03/05 02:47:15;;;;;;;;;;;2.90;99.90;;;;;;5031462;28;20146;-55
2023/03/05 02:49:40;;;;;;;;;;;2.90;99.90;;;;;;5031553;28;19982;-52
2023/03/05 02:52:06;;;;;;;;;;;2.90;99.90;;;;;;5032025;28;19917;-57
2023/03/05 02:54:31;;;;;;;;;;;2.90;99.90;;;;;;5031454;28;19975;-54
2023/03/05 02:56:56;;;;;;;;;;;2.90;99.90;;;;;;5031819;28;19916;-53
2023/03/05 02:59:22;;;;;;;;;;;2.90;99.90;;;;;;5030056;28;19924;-54
2023/03/05 03:01:47;;;;;;;;;;;2.90;99.90;;;;;;5031975;28;20017;-55
2023/03/05 03:04:13;;;;;;;;;;;2.80;99.90;;;;;;5031419;28;19917;-55
2023/03/05 03:06:38;;;;;;;;;;;2.80;99.90;;;;;;5031366;28;20012;-56
2023/03/05 03:09:04;;;;;;;;;;;2.80;99.90;;;;;;5030448;28;19916;-54
2023/03/05 03:11:29;;;;;;;;;;;2.80;99.90;;;;;;5031857;28;19975;-53
2023/03/05 03:13:55;;;;;;;;;;;2.80;99.90;;;;;;5031008;28;19916;-54
2023/03/05 03:16:20;;;;;;;;;;;2.80;99.90;;;;;;5031836;28;19921;-54
2023/03/05 03:18:47;;;;;;;;;;;2.80;99.90;;;;;;5029809;28;19924;-56
2023/03/05 03:21:17;;;;;;;;;;;2.80;99.90;;;;;;5031491;28;19929;-53
2023/03/05 03:23:43;;;;;;;;;;;2.90;99.90;;;;;;5030894;28;19924;-54
2023/03/05 03:26:08;;;;;;;;;;;2.90;99.90;;;;;;5031467;28;19921;-55
2023/03/05 03:28:34;;;;;;;;;;;2.90;99.90;;;;;;5028309;28;19921;-56
2023/03/05 03:30:59;;;;;;;;;;;2.90;99.90;;;;;;5030176;28;19935;-53
2023/03/05 03:33:25;;;;;;;;;;;2.90;99.90;;;;;;5029020;28;20020;-56
2023/03/05 03:35:50;;;;;;;;;;;2.90;99.90;;;;;;5028848;28;20378;-55
2023/03/05 03:38:16;;;;;;;;;;;2.90;99.90;;;;;;5029208;28;20014;-52
2023/03/05 03:40:41;;;;;;;;;;;3.00;99.90;;;;;;5030180;28;20301;-52
2023/03/05 03:43:07;;;;;;;;;;;3.00;99.90;;;;;;5030453;28;19928;-55
2023/03/05 03:45:32;;;;;;;;;;;3.00;99.90;;;;;;5030854;28;19925;-56
2023/03/05 03:47:58;;;;;;;;;;;3.00;99.90;;;;;;5030173;28;19996;-55
2023/03/05 03:50:24;;;;;;;;;;;3.00;99.90;;;;;;5029646;28;20002;-51
2023/03/05 03:52:50;;;;;;;;;;;3.10;99.90;;;;;;5031384;28;19917;-56
2023/03/05 03:55:16;;;;;;;;;;;3.00;99.90;;;;;;5030887;28;19944;-53
2023/03/05 03:57:42;;;;;;;;;;;3.10;99.90;;;;;;5027643;28;19927;-55
2023/03/05 04:00:09;;;;;;;;;;;3.10;99.90;;;;;;5031081;28;19923;-53
2023/03/05 04:02:34;;;;;;;;;;;3.10;99.90;;;;;;5030935;28;19924;-52
2023/03/05 04:05:00;;;;;;;;;;;3.20;99.90;;;;;;5030453;28;19921;-54
2023/03/05 04:07:25;;;;;;;;;;;3.20;99.90;;;;;;5029324;28;19917;-56
2023/03/05 04:09:51;;;;;;;;;;;3.20;99.90;;;;;;5029998;28;20020;-52
2023/03/05 04:12:17;;;;;;;;;;;3.20;99.90;;;;;;5029981;28;19917;-54
2023/03/05 04:14:46;;;;;;;;;;;3.20;99.90;;;;;;5030651;28;19917;-55
2023/03/05 04:17:12;;;;;;;;;;;3.20;99.90;;;;;;5029392;28;19921;-54
2023/03/05 04:19:38;;;;;;;;;;;3.20;99.90;;;;;;5029871;28;19924;-53
2023/03/05 04:22:03;;;;;;;;;;;3.20;99.90;;;;;;5029789;28;20378;-55
2023/03/05 04:24:29;;;;;;;;;;;3.20;99.90;;;;;;5030449;28;19951;-55
2023/03/05 04:26:54;;;;;;;;;;;3.20;99.90;;;;;;5029772;28;20434;-55
2023/03/05 04:29:20;;;;;;;;;;;3.20;99.90;;;;;;5029549;28;19917;-54
2023/03/05 04:31:45;;;;;;;;;;;3.20;99.90;;;;;;5029960;28;20453;-55
2023/03/05 04:34:11;;;;;;;;;;;3.20;99.90;;;;;;5029860;28;19968;-56
2023/03/05 04:36:36;;;;;;;;;;;3.20;99.90;;;;;;5029638;28;20453;-52
2023/03/05 04:39:02;;;;;;;;;;;3.20;99.90;;;;;;5028552;28;19924;-52
2023/03/05 04:41:27;;;;;;;;;;;3.20;99.90;;;;;;5029195;28;20382;-55
2023/03/05 04:43:53;;;;;;;;;;;3.20;99.90;;;;;;5030116;28;19921;-54
2023/03/05 04:46:18;;;;;;;;;;;3.20;99.90;;;;;;5011800;28;20012;-56
2023/03/05 04:48:44;;;;;;;;;;;3.20;99.90;;;;;;5028156;28;19921;-56
2023/03/05 04:51:09;;;;;;;;;;;3.20;99.90;;;;;;5030033;28;19917;-55
2023/03/05 04:53:35;;;;;;;;;;;3.20;99.90;;;;;;5029660;28;19917;-53
2023/03/05 04:56:00;;;;;;;;;;;3.20;99.90;;;;;;5029601;28;19917;-57
2023/03/05 04:58:26;;;;;;;;;;;3.20;99.90;;;;;;5028856;28;20011;-56
2023/03/05 05:00:52;;;;;;;;;;;3.20;99.90;;;;;;5029781;28;19971;-52
2023/03/05 05:03:17;;;;;;;;;;;3.10;99.90;;;;;;5029887;28;20422;-57
2023/03/05 05:05:43;;;;;;;;;;;3.10;99.90;;;;;;5029219;28;19921;-57
2023/03/05 05:08:08;;;;;;;;;;;3.10;99.90;;;;;;5028723;28;19999;-55
2023/03/05 05:10:37;;;;;;;;;;;3.20;99.90;;;;;;5028814;28;19917;-52
2023/03/05 05:13:02;;;;;;;;;;;3.10;99.90;;;;;;5030144;28;20290;-56
2023/03/05 05:15:28;;;;;;;;;;;3.10;99.90;;;;;;5029054;28;19927;-52
2023/03/05 05:17:53;;;;;;;;;;;3.10;99.90;;;;;;5028635;28;20003;-54
2023/03/05 05:20:19;;;;;;;;;;;3.10;99.90;;;;;;5029696;28;19917;-55
2023/03/05 05:22:44;;;;;;;;;;;3.00;99.90;;;;;;5029810;28;19947;-55
2023/03/05 05:25:10;;;;;;;;;;;3.00;99.90;;;;;;5028863;28;20023;-52
2023/03/05 05:27:36;;;;;;;;;;;3.00;99.90;;;;;;5028657;28;19924;-55
2023/03/05 05:30:03;;;;;;;;;;;3.00;99.90;;;;;;5032740;28;19924;-54
2023/03/05 05:32:28;;;;;;;;;;;3.00;99.90;;;;;;5033770;28;19924;-54
2023/03/05 05:34:54;;;;;;;;;;;3.00;99.90;;;;;;5033528;28;19917;-56
2023/03/05 05:37:20;;;;;;;;;;;3.00;99.90;;;;;;5032925;28;20374;-57
2023/03/05 05:39:49;;;;;;;;;;;3.00;99.90;;;;;;5032281;28;19924;-55
2023/03/05 05:42:17;;;;;;;;;;;3.00;99.90;;;;;;5033550;28;19972;-56
2023/03/05 05:44:43;;;;;;;;;;;3.00;99.90;;;;;;5033470;28;19921;-52
2023/03/05 05:47:09;;;;;;;;;;;3.00;99.90;;;;;;5034522;28;19917;-53
2023/03/05 05:49:34;;;;;;;;;;;3.00;99.90;;;;;;5042539;28;19940;-55
2023/03/05 05:52:00;;;;;;;;;;;3.00;99.90;;;;;;5032432;28;20322;-54
2023/03/05 05:54:25;;;;;;;;;;;3.00;99.90;;;;;;5032359;28;20182;-54
2023/03/05 05:56:51;;;;;;;;;;;3.00;99.90;;;;;;5033167;28;19920;-55
2023/03/05 05:59:16;;;;;;;;;;;3.00;99.90;;;;;;5031622;28;19960;-56
2023/03/05 06:01:42;;;;;;;;;;;3.00;99.90;;;;;;5033242;28;20332;-52
2023/03/05 06:04:07;;;;;;;;;;;3.00;99.90;;;;;;5032291;28;20329;-55
2023/03/05 06:06:33;;;;;;;;;;;3.00;99.90;;;;;;5032833;28;19917;-54
2023/03/05 06:08:59;;;;;;;;;;;3.00;99.90;;;;;;5029911;28;19956;-54
2023/03/05 06:11:25;;;;;;;;;;;3.00;99.90;;;;;;5032844;28;20405;-56
2023/03/05 06:13:50;;;;;;;;;;;3.00;99.90;;;;;;5032957;28;19943;-53
2023/03/05 06:16:17;;;;;;;;;;;3.00;99.90;;;;;;5032362;28;20382;-55
2023/03/05 06:18:43;;;;;;;;;;;3.00;99.90;;;;;;5031169;28;19917;-57
2023/03/05 06:21:13;;;;;;;;;;;3.00;99.90;;;;;;5032722;28;20293;-51
2023/03/05 06:23:38;;;;;;;;;;;3.00;99.90;;;;;;5032397;28;20391;-55
2023/03/05 06:26:05;;;;;;;;;;;3.00;99.90;;;;;;5031136;28;19928;-57
2023/03/05 06:28:31;;;;;;;;;;;3.00;99.90;;;;;;5024808;28;19928;-53
2023/03/05 06:31:10;;;;;;;;;;;3.00;99.90;;;;;;5033351;28;19917;-52
2023/03/05 06:33:36;;;;;;;;;;;3.00;99.90;;;;;;5032338;28;19917;-55
2023/03/05 06:36:05;;;;;;;;;;;2.90;99.90;;;;;;5031321;28;19936;-53
2023/03/05 06:38:31;;;;;;;;;;;2.90;99.90;;;;;;5027416;28;20396;-54
2023/03/05 06:41:00;;;;;;;;;;;2.90;99.90;;;;;;5032049;28;19921;-52
2023/03/05 06:43:26;;;;;;;;;;;2.90;99.90;;;;;;5032258;28;19917;-55
2023/03/05 06:46:02;;;;;;;;;;;3.00;99.90;;;;;;5031842;28;19924;-52
2023/03/05 06:48:27;;;;;;;;;;;3.00;99.90;;;;;;5031074;28;20402;-52
2023/03/05 06:50:53;;;;;;;;;;;3.00;99.90;;;;;;5031739;28;20012;-55
2023/03/05 06:53:18;;;;;;;;;;;3.00;99.90;;;;;;5032208;28;19917;-55
2023/03/05 06:55:44;;;;;;;;;;;3.10;99.90;;;;;;5031634;28;20374;-53
2023/03/05 06:58:09;;;;;;;;;;;3.10;99.90;;;;;;5030240;28;19956;-54
2023/03/05 07:00:35;;;;;;;;;;;3.10;99.90;;;;;;5032036;28;19917;-55
2023/03/05 07:03:00;;;;;;;;;;;3.10;99.90;;;;;;5031652;28;19983;-55
2023/03/05 07:05:26;;;;;;;;;;;3.10;99.90;;;;;;5031933;28;19921;-56
2023/03/05 07:07:51;;;;;;;;;;;3.20;99.90;;;;;;5028198;28;19996;-55
2023/03/05 07:10:17;;;;;;;;;;;3.20;99.90;;;;;;5032162;28;19917;-54
2023/03/05 07:12:43;;;;;;;;;;;3.20;99.90;;;;;;5031203;28;20012;-54
2023/03/05 07:15:08;;;;;;;;;;;3.30;99.90;;;;;;5031185;28;19921;-57
2023/03/05 07:17:34;;;;;;;;;;;3.30;99.90;;;;;;5030050;28;20401;-52
2023/03/05 07:19:59;;;;;;;;;;;3.40;99.90;;;;;;5030264;28;19999;-55
2023/03/05 07:22:25;;;;;;;;;;;3.40;99.90;;;;;;5031226;28;19916;-55
2023/03/05 07:24:50;;;;;;;;;;;3.40;99.90;;;;;;5030842;28;19974;-53
2023/03/05 07:27:16;;;;;;;;;;;3.40;99.90;;;;;;5029712;28;20201;-55
2023/03/05 07:29:41;;;;;;;;;;;3.50;99.90;;;;;;5030092;28;20386;-56
2023/03/05 07:32:06;;;;;;;;;;;3.50;99.90;;;;;;5031422;28;19917;-55
2023/03/05 07:34:32;;;;;;;;;;;3.50;99.90;;;;;;5031234;28;20312;-52
2023/03/05 07:36:57;;;;;;;;;;;3.50;99.90;;;;;;5026079;28;20488;-57
2023/03/05 07:39:23;;;;;;;;;;;3.60;99.90;;;;;;5028516;28;19917;-52
2023/03/05 07:41:50;;;;;;;;;;;3.50;99.90;;;;;;5031844;28;20362;-56
2023/03/05 07:44:16;;;;;;;;;;;3.60;99.90;;;;;;5030752;28;19916;-56
2023/03/05 07:46:42;;;;;;;;;;;3.60;99.90;;;;;;5029756;28;20405;-55
2023/03/05 07:49:08;;;;;;;;;;;3.60;99.90;;;;;;5017274;28;20462;-53
2023/03/05 07:51:34;;;;;;;;;;;3.60;99.90;;;;;;5026503;28;20000;-55
2023/03/05 07:54:00;;;;;;;;;;;3.70;99.90;;;;;;5037302;28;19916;-57
2023/03/05 07:56:28;;;;;;;;;;;3.80;99.90;;;;;;5030664;28;19940;-55
2023/03/05 07:58:54;;;;;;;;;;;3.90;99.90;;;;;;5029555;28;19917;-56
2023/03/05 08:01:19;;;;;;;;;;;4.00;99.90;;;;;;5030345;28;20004;-54
2023/03/05 08:03:45;;;;;;;;;;;4.10;99.90;;;;;;5031144;28;20370;-57
2023/03/05 08:06:11;;;;;;;;;;;4.30;99.90;;;;;;5030338;28;19929;-52
2023/03/05 08:08:36;;;;;;;;;;;4.40;99.90;;;;;;5028160;28;20359;-55
2023/03/05 08:11:03;;;;;;;;;;;4.50;99.90;;;;;;5030612;28;19924;-57
2023/03/05 08:13:28;;;;;;;;;;;4.50;99.90;;;;;;5030464;28;19975;-56
2023/03/05 08:15:54;;;;;;;;;;;4.50;99.90;;;;;;5030510;28;19917;-55
2023/03/05 08:18:19;;;;;;;;;;;4.40;99.90;;;;;;5028777;28;20413;-52
2023/03/05 08:20:45;;;;;;;;;;;4.50;99.90;;;;;;5030360;28;19960;-56
2023/03/05 08:23:10;;;;;;;;;;;4.50;99.90;;;;;;5029588;28;20419;-57
2023/03/05 08:25:37;;;;;;;;;;;4.60;99.90;;;;;;5028558;28;19928;-52
2023/03/05 08:28:02;;;;;;;;;;;4.70;99.90;;;;;;5018138;28;20004;-56
2023/03/05 08:30:28;;;;;;;;;;;4.80;99.90;;;;;;5017569;28;20007;-53
2023/03/05 08:32:54;;;;;;;;;;;5.00;99.90;;;;;;5029876;28;19924;-54
2023/03/05 08:35:20;;;;;;;;;;;5.10;99.90;;;;;;5025287;28;20427;-56
2023/03/05 08:37:45;;;;;;;;;;;5.20;99.90;;;;;;5026877;28;19925;-55
2023/03/05 08:40:11;;;;;;;;;;;5.30;99.90;;;;;;5029041;28;19920;-54
2023/03/05 08:42:36;;;;;;;;;;;5.30;99.90;;;;;;5029237;28;19939;-52
2023/03/05 08:45:02;;;;;;;;;;;5.40;99.90;;;;;;5032700;28;20018;-56
2023/03/05 08:47:27;;;;;;;;;;;5.40;99.90;;;;;;5044109;28;19924;-56
2023/03/05 08:49:54;;;;;;;;;;;5.50;99.90;;;;;;5028997;28;19917;-55
2023/03/05 08:52:20;;;;;;;;;;;5.60;99.90;;;;;;5029561;28;19995;-54
2023/03/05 08:54:46;;;;;;;;;;;5.60;99.90;;;;;;5029794;28;19943;-56
2023/03/05 08:57:11;;;;;;;;;;;5.70;99.90;;;;;;5029421;28;20035;-56
2023/03/05 08:59:37;;;;;;;;;;;5.80;99.90;;;;;;5029443;28;20436;-53
2023/03/05 09:02:02;;;;;;;;;;;5.90;99.90;;;;;;5029333;28;19939;-55
2023/03/05 09:04:28;;;;;;;;;;;6.00;99.90;;;;;;5033091;28;19923;-56
2023/03/05 09:06:53;;;;;;;;;;;6.00;99.90;;;;;;5032556;28;19917;-55
2023/03/05 09:09:22;;;;;;;;;;;6.10;99.90;;;;;;5033023;28;19957;-56
2023/03/05 09:11:47;;;;;;;;;;;6.20;99.90;;;;;;5033604;28;19917;-54
2023/03/05 09:14:13;;;;;;;;;;;6.40;99.90;;;;;;5033860;28;19963;-55
2023/03/05 09:16:39;;;;;;;;;;;6.40;99.90;;;;;;5033342;28;20005;-56
2023/03/05 09:19:07;;;;;;;;;;;6.50;99.90;;;;;;5031982;28;19960;-57
2023/03/05 09:21:33;;;;;;;;;;;6.70;99.90;;;;;;5032788;28;19927;-54
2023/03/05 09:23:59;;;;;;;;;;;6.70;99.90;;;;;;5033431;28;20301;-56
2023/03/05 09:26:25;;;;;;;;;;;6.80;99.90;;;;;;5033350;28;19928;-56
2023/03/05 09:28:50;;;;;;;;;;;6.90;99.90;;;;;;5032160;28;19921;-55
2023/03/05 09:31:16;;;;;;;;;;;7.00;99.90;;;;;;5033037;28;20402;-56
2023/03/05 09:33:42;;;;;;;;;;;7.10;99.90;;;;;;5031885;28;20399;-56
2023/03/05 09:36:21;;;;;;;;;;;7.30;99.90;;;;;;5041994;28;19928;-53
2023/03/05 09:38:46;;;;;;;;;;;7.40;99.90;;;;;;5032077;28;20295;-57
2023/03/05 09:41:33;;;;;;;;;;;7.40;99.90;;;;;;5033285;28;19967;-55
2023/03/05 09:44:08;;;;;;;;;;;7.50;99.90;;;;;;5033049;28;19917;-57
2023/03/05 09:46:48;;;;;;;;;;;7.60;99.90;;;;;;5032416;28;19929;-56
2023/03/05 09:49:37;;;;;;;;;;;7.70;99.90;;;;;;5031597;28;19921;-56
2023/03/05 09:52:23;;;;;;;;;;;7.60;99.90;;;;;;5022600;28;19925;-55
2023/03/05 09:54:53;;;;;;;;;;;7.60;99.90;;;;;;5032352;28;19917;-56
2023/03/05 09:57:21;;;;;;;;;;;7.50;99.90;;;;;;5032374;28;19931;-57
2023/03/05 09:59:48;;;;;;;;;;;7.40;99.90;;;;;;5032317;28;19917;-55
2023/03/05 10:02:34;;;;;;;;;;;7.30;99.90;;;;;;5032664;28;19924;-55
2023/03/05 10:05:11;;;;;;;;;;;7.30;99.90;;;;;;5032135;28;19921;-55
2023/03/05 10:07:38;;;;;;;;;;;7.40;99.90;;;;;;5031521;28;19939;-57
2023/03/05 10:10:07;;;;;;;;;;;7.40;99.90;;;;;;5032097;28;19971;-54
2023/03/05 10:12:37;;;;;;;;;;;7.50;99.90;;;;;;5032134;28;19923;-54
2023/03/05 10:15:08;;;;;;;;;;;7.50;99.90;;;;;;5031549;28;19939;-55
2023/03/05 10:17:44;;;;;;;;;;;7.50;99.90;;;;;;5031234;28;19956;-55
2023/03/05 10:20:12;;;;;;;;;;;7.50;99.90;;;;;;5031936;28;19971;-56
2023/03/05 10:22:56;;;;;;;;;;;7.30;99.90;;;;;;5032723;28;19917;-56
2023/03/05 10:25:37;;;;;;;;;;;7.20;99.90;;;;;;5032207;28;20337;-55
2023/03/05 10:28:06;;;;;;;;;;;7.30;99.90;;;;;;5030755;28;19920;-57
2023/03/05 10:30:32;;;;;;;;;;;7.30;99.90;;;;;;5031864;28;19917;-55
2023/03/05 10:33:16;;;;;;;;;;;7.40;99.90;;;;;;5032299;28;19923;-54
2023/03/05 10:35:46;;;;;;;;;;;7.40;99.90;;;;;;5030478;28;19921;-56
2023/03/05 10:38:15;;;;;;;;;;;7.40;99.90;;;;;;5030781;28;20217;-56
2023/03/05 10:40:51;;;;;;;;;;;7.40;99.90;;;;;;5030475;28;20184;-56
2023/03/05 10:43:25;;;;;;;;;;;7.40;99.90;;;;;;5032357;28;19964;-57
2023/03/05 10:45:52;;;;;;;;;;;7.40;99.90;;;;;;5031438;28;19931;-57
2023/03/05 10:48:33;;;;;;;;;;;7.40;99.90;;;;;;5030472;28;20008;-55
2023/03/05 10:51:19;;;;;;;;;;;7.20;99.90;;;;;;5031239;28;20024;-56
2023/03/05 10:54:07;;;;;;;;;;;7.10;99.90;;;;;;5031807;28;19932;-57
2023/03/05 10:56:33;;;;;;;;;;;7.10;99.90;;;;;;5032200;28;19916;-54
2023/03/05 10:58:58;;;;;;;;;;;7.10;99.90;;;;;;5032039;28;20011;-54
2023/03/05 11:01:26;;;;;;;;;;;7.10;99.90;;;;;;5027456;28;19917;-55
2023/03/05 11:03:58;;;;;;;;;;;7.10;99.90;;;;;;5023143;28;20405;-55
2023/03/05 11:06:27;;;;;;;;;;;7.10;99.90;;;;;;5018572;28;19921;-54
2023/03/05 11:08:53;;;;;;;;;;;7.00;99.90;;;;;;5022762;28;19916;-55
2023/03/05 11:11:20;;;;;;;;;;;7.10;99.90;;;;;;5031851;28;20436;-54
2023/03/05 11:13:51;;;;;;;;;;;7.10;99.90;;;;;;5031205;28;19944;-57
2023/03/05 11:16:27;;;;;;;;;;;7.20;99.90;;;;;;5031305;28;19955;-56
2023/03/05 11:19:11;;;;;;;;;;;7.30;99.90;;;;;;5030490;28;19935;-56
2023/03/05 11:21:36;;;;;;;;;;;7.30;99.90;;;;;;5019125;28;19917;-56
2023/03/05 11:24:08;;;;;;;;;;;7.30;99.90;;;;;;5031330;28;19917;-57
2023/03/05 11:26:34;;;;;;;;;;;7.30;99.90;;;;;;5031000;28;19936;-57
2023/03/05 11:29:02;;;;;;;;;;;7.40;99.90;;;;;;5030214;28;19917;-56
2023/03/05 11:31:29;;;;;;;;;;;7.50;99.90;;;;;;5029754;28;19952;-57
2023/03/05 11:33:57;;;;;;;;;;;7.60;99.90;;;;;;5030529;28;19917;-57
2023/03/05 11:36:23;;;;;;;;;;;7.80;99.90;;;;;;5029925;28;19925;-54
2023/03/05 11:38:51;;;;;;;;;;;7.90;99.90;;;;;;5016002;28;20008;-56
2023/03/05 11:41:19;;;;;;;;;;;7.90;99.90;;;;;;5028908;28;20039;-56
2023/03/05 11:43:44;;;;;;;;;;;7.90;99.90;;;;;;5031123;28;19921;-57
2023/03/05 11:46:11;;;;;;;;;;;7.90;99.90;;;;;;5026788;28;19968;-57
2023/03/05 11:48:37;;;;;;;;;;;7.90;99.90;;;;;;5026326;28;20291;-57
2023/03/05 11:51:08;;;;;;;;;;;7.90;99.90;;;;;;5030557;28;19917;-57
2023/03/05 11:53:35;;;;;;;;;;;7.90;99.90;;;;;;5013826;28;19921;-57
2023/03/05 11:56:11;;;;;;;;;;;7.80;99.90;;;;;;5020750;28;19921;-57
2023/03/05 11:58:40;;;;;;;;;;;7.70;99.90;;;;;;5029631;28;20379;-57
2023/03/05 12:01:09;;;;;;;;;;;7.60;99.90;;;;;;5028575;28;19917;-56
2023/03/05 12:03:37;;;;;;;;;;;7.40;99.90;;;;;;5012962;28;19918;-57
2023/03/05 12:06:14;;;;;;;;;;;7.20;99.90;;;;;;5015408;28;20653;-56
2023/03/05 12:08:41;;;;;;;;;;;7.10;99.90;;;;;;5010162;28;19924;-56
2023/03/05 12:11:27;;;;;;;;;;;7.00;99.90;;;;;;5011612;28;19924;-56
2023/03/05 12:14:03;;;;;;;;;;;6.90;99.90;;;;;;5018982;28;20305;-56
2023/03/05 12:16:31;;;;;;;;;;;6.90;99.90;;;;;;5031062;28;19972;-56
2023/03/05 12:19:00;;;;;;;;;;;6.80;99.90;;;;;;5028990;28;19948;-57
2023/03/05 12:21:33;;;;;;;;;;;6.80;99.90;;;;;;5027959;28;20110;-56
2023/03/05 12:24:02;;;;;;;;;;;6.80;99.90;;;;;;5025112;28;19917;-56
2023/03/05 12:26:52;;;;;;;;;;;6.80;99.90;;;;;;5029562;28;20058;-57
2023/03/05 12:29:28;;;;;;;;;;;6.80;99.90;;;;;;5010676;28;20418;-56
2023/03/05 12:31:54;;;;;;;;;;;6.90;99.90;;;;;;5022355;28;19917;-57
2023/03/05 12:34:37;;;;;;;;;;;7.10;99.90;;;;;;5010874;28;20115;-56
2023/03/05 12:37:04;;;;;;;;;;;7.10;99.90;;;;;;5010043;28;19918;-54
2023/03/05 12:39:40;;;;;;;;;;;7.20;99.90;;;;;;5009163;28;19921;-55
2023/03/05 12:42:25;;;;;;;;;;;7.20;99.90;;;;;;5011181;28;20016;-57
2023/03/05 12:45:08;;;;;;;;;;;7.40;99.90;;;;;;5023495;28;19964;-58
2023/03/05 12:47:37;;;;;;;;;;;7.40;99.90;;;;;;5028488;28;19917;-55
2023/03/05 12:50:04;;;;;;;;;;;7.60;99.90;;;;;;5029712;28;19932;-57
2023/03/05 12:52:31;;;;;;;;;;;7.60;99.90;;;;;;5029922;28;19917;-56
2023/03/05 12:55:19;;;;;;;;;;;7.60;99.90;;;;;;5029488;28;19921;-56
2023/03/05 12:57:45;;;;;;;;;;;7.60;99.90;;;;;;5026717;28;19924;-56
2023/03/05 13:00:20;;;;;;;;;;;7.80;99.90;;;;;;5029654;28;19956;-56
2023/03/05 13:02:47;;;;;;;;;;;7.90;99.90;;;;;;5027097;28;19921;-57
2023/03/05 13:05:20;;;;;;;;;;;8.00;99.90;;;;;;5028998;28;19921;-57
2023/03/05 13:07:46;;;;;;;;;;;8.00;99.90;;;;;;5026023;28;19917;-57
2023/03/05 13:10:32;;;;;;;;;;;8.20;99.90;;;;;;5029405;28;19972;-56
2023/03/05 13:12:57;;;;;;;;;;;8.30;99.90;;;;;;5029630;28;19924;-57
2023/03/05 13:15:24;;;;;;;;;;;8.50;99.90;;;;;;5022631;28;19918;-58
2023/03/05 13:17:57;;;;;;;;;;;8.60;99.90;;;;;;5009408;28;19917;-57
2023/03/05 13:20:22;;;;;;;;;;;8.60;99.90;;;;;;5010103;28;19921;-57
2023/03/05 13:23:00;;;;;;;;;;;8.60;99.90;;;;;;5009819;28;20003;-55
2023/03/05 13:25:26;;;;;;;;;;;8.60;99.90;;;;;;5010184;28;19921;-55
2023/03/05 13:27:51;;;;;;;;;;;8.50;99.90;;;;;;5018549;28;20378;-55
2023/03/05 13:30:21;;;;;;;;;;;8.30;99.90;;;;;;5029822;28;19948;-57
2023/03/05 13:32:48;;;;;;;;;;;8.20;99.90;;;;;;5029915;28;20035;-57
2023/03/05 13:35:14;;;;;;;;;;;8.20;99.90;;;;;;5029663;28;19924;-56
2023/03/05 13:37:42;;;;;;;;;;;8.20;99.90;;;;;;5028274;28;19916;-57
2023/03/05 13:40:24;;;;;;;;;;;8.30;99.90;;;;;;5016434;28;20283;-58
2023/03/05 13:42:52;;;;;;;;;;;8.30;99.90;;;;;;5010196;28;20346;-56
2023/03/05 13:45:23;;;;;;;;;;;8.30;99.90;;;;;;5009799;28;20023;-56
2023/03/05 13:47:53;;;;;;;;;;;8.10;99.90;;;;;;5006899;28;20361;-56
2023/03/05 13:50:22;;;;;;;;;;;8.00;99.90;;;;;;5011544;28;19917;-57
2023/03/05 13:52:48;;;;;;;;;;;7.90;99.90;;;;;;5013524;28;19921;-57
2023/03/05 13:55:15;;;;;;;;;;;7.90;99.90;;;;;;5013739;28;20125;-57
2023/03/05 13:57:52;;;;;;;;;;;7.80;99.90;;;;;;5012349;28;19929;-56
2023/03/05 14:00:23;;;;;;;;;;;7.70;99.90;;;;;;5013951;28;19965;-57
2023/03/05 14:02:49;;;;;;;;;;;7.50;99.90;;;;;;5013570;28;20367;-56
2023/03/05 14:05:15;;;;;;;;;;;7.40;99.90;;;;;;5030248;28;19936;-57
2023/03/05 14:07:41;;;;;;;;;;;7.30;99.90;;;;;;5031962;28;20007;-57
2023/03/05 14:10:26;;;;;;;;;;;7.20;99.90;;;;;;5033140;28;19917;-55
2023/03/05 14:12:52;;;;;;;;;;;7.10;99.90;;;;;;5032469;28;19917;-56
2023/03/05 14:15:20;;;;;;;;;;;7.10;99.90;;;;;;5033316;28;19987;-56
2023/03/05 14:17:46;;;;;;;;;;;7.00;99.90;;;;;;5031765;28;19960;-55
2023/03/05 14:20:11;;;;;;;;;;;7.00;99.90;;;;;;5032763;28;19971;-57
2023/03/05 14:22:38;;;;;;;;;;;7.00;99.90;;;;;;5032838;28;20348;-57
2023/03/05 14:25:04;;;;;;;;;;;7.00;99.90;;;;;;5032491;28;19925;-55
2023/03/05 14:27:32;;;;;;;;;;;7.00;99.90;;;;;;5029717;28;19920;-56
2023/03/05 14:29:58;;;;;;;;;;;7.00;99.90;;;;;;5033009;28;19917;-56
2023/03/05 14:32:33;;;;;;;;;;;7.10;99.90;;;;;;5032366;28;20152;-57
2023/03/05 14:34:59;;;;;;;;;;;7.10;99.90;;;;;;5032675;28;19917;-57